EDT,Max TemperatureF,Mean TemperatureF,Min TemperatureF,Max Dew PointF,MeanDew PointF,Min DewpointF,Max Humidity, Mean Humidity, Min Humidity, Max Sea Level PressureIn, Mean Sea Level PressureIn, Min Sea Level PressureIn, Max VisibilityMiles, Mean VisibilityMiles, Min VisibilityMiles, Max Wind SpeedMPH, Mean Wind SpeedMPH, Max Gust SpeedMPH,PrecipitationIn, CloudCover, Events, WindDirDegrees
2013-3-1,54,44,33,30,29,27,82,55,37,29.90,29.85,29.81,10.0,10.0,10.0,12,7,18,0.00,4,,303
2013-3-2,53,44,35,31,28,27,78,54,38,29.91,29.85,29.79,10.0,10.0,10.0,12,6,,0.00,5,,323
2013-3-3,46,39,32,25,23,21,72,54,39,29.94,29.88,29.83,10.0,9.9,7.0,16,9,22,0.00,2,,326
2013-3-4,48,39,30,23,18,16,75,47,28,30.10,30.04,29.95,10.0,9.1,0.7,16,10,23,0.00,0,,302
2013-3-5,61,44,28,54,34,22,83,62,31,30.12,29.97,29.65,10.0,9.5,5.0,14,4,26,0.02,4,Rain,200
2013-3-6,60,51,42,55,38,25,88,67,42,29.90,29.62,29.49,10.0,9.4,5.0,33,22,47,0.08,7,Rain,274
2013-3-7,55,48,41,31,28,25,65,49,34,30.17,30.06,29.91,10.0,10.0,10.0,28,21,38,0.00,2,,334
2013-3-8,54,45,36,28,25,23,64,46,31,30.21,30.16,30.09,10.0,10.0,10.0,25,14,32,0.00,0,,333
2013-3-9,62,50,37,34,30,26,82,51,27,30.30,30.25,30.21,10.0,10.0,10.0,18,12,24,0.00,0,,360
2013-3-10,61,46,30,43,35,25,93,69,26,30.32,30.28,30.26,10.0,9.7,7.0,12,3,20,0.00,1,Fog,60
2013-3-11,69,56,43,54,47,40,93,70,47,30.26,30.15,30.01,10.0,9.4,7.0,17,5,24,0.00,4,Fog,140
2013-3-12,68,62,55,61,58,54,94,87,70,29.99,29.88,29.78,10.0,6.5,1.5,14,10,22,0.75,7,Rain,194
2013-3-13,61,54,48,44,34,24,66,49,27,30.06,29.99,29.89,10.0,10.0,10.0,17,13,25,0.00,3,,331
2013-3-14,53,44,36,28,21,16,70,45,30,30.20,30.15,30.08,10.0,10.0,10.0,26,15,32,0.00,1,,316
2013-3-15,59,44,30,39,27,18,76,50,24,30.19,30.09,29.97,10.0,10.0,10.0,15,5,25,0.00,0,,234
2013-3-16,75,63,53,50,45,40,66,55,35,29.95,29.84,29.73,10.0,10.0,10.0,15,10,25,0.00,2,,221
2013-3-17,59,54,48,50,45,39,93,74,60,30.17,30.02,29.86,10.0,8.7,0.8,18,10,25,0.00,6,,68
2013-3-18,64,56,48,53,48,42,93,80,65,30.14,30.05,29.91,10.0,9.5,6.0,17,10,26,0.00,7,,48
2013-3-19,69,60,52,58,50,24,94,78,28,29.97,29.85,29.75,10.0,8.0,1.8,16,6,22,0.36,5,Rain-Thunderstorm,278
2013-3-20,55,50,43,35,21,11,74,34,17,30.11,29.98,29.82,10.0,10.0,10.0,16,8,24,0.00,5,,6
2013-3-21,52,43,34,32,27,12,86,55,33,29.94,29.77,29.69,10.0,10.0,10.0,21,7,28,0.00,1,,326
2013-3-22,53,40,28,31,18,11,79,45,23,30.09,30.02,29.96,10.0,10.0,10.0,17,11,24,0.00,1,,284
2013-3-23,57,44,32,36,30,27,85,58,34,30.04,30.00,29.93,10.0,10.0,10.0,8,3,,0.00,4,,272
2013-3-24,52,46,39,49,43,35,94,85,62,29.95,29.66,29.45,10.0,6.6,1.8,23,9,38,0.28,7,Rain,49
2013-3-25,50,44,41,41,37,24,93,77,46,29.80,29.60,29.51,10.0,8.3,1.5,22,10,33,0.02,7,Rain,279
2013-3-26,50,42,35,32,27,24,73,55,41,30.07,29.92,29.81,10.0,10.0,10.0,18,11,22,0.00,4,Rain,276
2013-3-27,55,44,33,31,25,22,75,48,27,30.19,30.13,30.08,10.0,10.0,9.0,17,9,69,0.00,1,,302
2013-3-28,57,45,35,30,24,22,70,46,28,30.25,30.19,30.14,10.0,10.0,10.0,17,8,23,0.00,2,,317
2013-3-29,60,44,30,35,29,25,85,55,28,30.32,30.26,30.19,10.0,9.8,6.0,13,4,25,0.00,1,,4
2013-3-30,64,48,35,41,37,32,89,63,35,30.24,30.19,30.14,10.0,10.0,9.0,14,4,21,0.00,5,,243
2013-3-31,69,56,44,56,49,40,90,74,56,30.14,29.98,29.86,10.0,9.7,8.0,18,7,28,0.04,6,Rain,180